Archival Weather

Alykel

Alykel, Russia (UOOO)

Report from: Tuesday, November 21, 2023 9:30 AM UTC
Current time: Friday, July 19, 2024 2:18 AM UTC

Current weather – Weather history – Daily summaries
Weather forecast

Present weatherLight snow, drifting snow
Temperature-26.0°C (-14.8°F)
Wind chill-37.4°C (-35.4°F)
Dew point-29.0°C (-20.2°F)
Winds 9.7 kts (5 m/s, 11.2 mph) South (190°)
Visibility2.9 mi. (4.7 km)
Clouds Ceiling: Overcast 1,900 ft. (579 m)
Altimeter30.24 in.Hg (1024 mB)
Precip. events QF 8:31 PM
Relative humidity76 %
Density altitude-5,688 ft. (-1,734 m)
Remarks No significant changes expected in the next two hours
Flight conditions Instrument Meteorological Conditions
Raw dataUOOO 210930Z 19005MPS 4700 -SN DRSN OVC019 M26/M29 Q1024 R19/35//60 NOSIG RMK QFE751/1002
An error has occurred. This application may no longer respond until reloaded. Reload 🗙